Vandenberg Air Force Base Lompoc US
ICAO: KVBG
IATA: VBG
Category: Large
Scheduled Services: No

Elevation: 369 ft
TransAlt. 18000 ft.

Airport Communications:
SANTA BARB APP/DEP:124.15
COMD POST:31.1
ATIS:133.125
CTAF:124.95
GND/CLNC DEL:121.75
RANGE CON:121.4
PMSV METRO:34.24
PTD:126.2
TWR:124.95

KVBG Zoom In..

If you have problems with the map follow the link
https://www.worldairports.se/pages/airport.php?
ICAO=KVBG

Runways:

(A) RW 12 length 15000 ft width 200 ft
ILS 110.10 / hdg 122

(B) RW 30 length 15000 ft width 200 ft
ILS 110.10 / hdg 302

Location; KVBG
Day. 20 / Time. 21.36 Zulu
* Altimeter: 29.90
* Temperature: 12° c. 53.6°f.
* Wind from: 320° Speed 15 kn with Gusts up to 21 kn.
Dewpoint: 09° c.
Visibility: 10 Statute Miles.
Clouds: Few 600 ft.
Clouds: Few 1600 ft.
Clouds: Broken 3900 ft.
Clouds: Broken 14000 ft.
Clouds: Broken 17000 ft.
Conditions: Cumulonimbus.

KVBG 202136Z 32015G21KT 10SM FEW006 FEW016 BKN039 BKN140 BKN170 12/09 A2990 RMK AO2A CB NW-NE-SE MOVG SE SLP130


Wind From 320°
Speed 15 kn.

 
 
jpsmedia.com for Web Design worldairports.se 2019   terms of use